Time;durP1;ratioP1;P1;durP2;ratioP2;P2;SDS_P1;SDS_P2;PMS_P1;PMS_P2;Temp;Humidity;BMP_temperature;BMP_pressure;BME280_temperature;BME280_humidity;BME280_pressure;Samples;Min_cycle;Max_cycle;Signal;HPM_P1;HPM_P2
2024/02/28 00:01:23;;;;;;;14.70;9.82;;;;;;;4.35;100.00;101142.81;4978031;28;20031;-67
2024/02/28 00:03:49;;;;;;;13.00;9.32;;;;;;;4.36;100.00;101147.22;5008037;28;20061;-68
2024/02/28 00:06:17;;;;;;;13.98;9.50;;;;;;;4.36;100.00;101138.97;4975319;28;20030;-67
2024/02/28 00:08:43;;;;;;;15.85;9.93;;;;;;;4.32;100.00;101143.25;4985569;28;20030;-67
2024/02/28 00:11:09;;;;;;;15.35;9.60;;;;;;;4.29;100.00;101140.97;4995750;28;20109;-67
2024/02/28 00:13:34;;;;;;;15.70;9.55;;;;;;;4.29;100.00;101144.59;4973449;28;20100;-67
2024/02/28 00:16:00;;;;;;;15.07;9.57;;;;;;;4.29;100.00;101140.97;4991339;28;20030;-67
2024/02/28 00:18:25;;;;;;;18.75;10.52;;;;;;;4.31;100.00;101144.34;4992734;28;20030;-68
2024/02/28 00:20:50;;;;;;;15.48;9.65;;;;;;;4.31;100.00;101141.59;4977185;28;20042;-67
2024/02/28 00:23:16;;;;;;;14.15;9.82;;;;;;;4.28;100.00;101153.06;4995064;28;20030;-67
2024/02/28 00:25:41;;;;;;;15.10;9.68;;;;;;;4.30;100.00;101156.41;4996044;28;20483;-67
2024/02/28 00:28:07;;;;;;;16.75;9.15;;;;;;;4.29;100.00;101154.72;5013664;28;20125;-67
2024/02/28 00:30:32;;;;;;;14.73;9.15;;;;;;;4.30;100.00;101156.41;4979039;28;20046;-67
2024/02/28 00:32:59;;;;;;;15.43;9.60;;;;;;;4.31;100.00;101152.59;5003540;28;20038;-67
2024/02/28 00:35:24;;;;;;;14.85;9.45;;;;;;;4.34;100.00;101155.69;5001817;28;20030;-67
2024/02/28 00:37:50;;;;;;;14.38;8.95;;;;;;;4.32;100.00;101159.75;5012116;28;20038;-67
2024/02/28 00:40:15;;;;;;;14.93;9.75;;;;;;;4.30;100.00;101142.66;4995805;28;20050;-67
2024/02/28 00:42:41;;;;;;;14.50;9.18;;;;;;;4.31;100.00;101147.09;4995607;28;20038;-67
2024/02/28 00:45:08;;;;;;;15.23;9.38;;;;;;;4.32;100.00;101159.75;4972170;28;20479;-67
2024/02/28 00:47:34;;;;;;;15.68;9.90;;;;;;;4.33;100.00;101150.44;4994825;28;20079;-67
2024/02/28 00:49:59;;;;;;;17.70;10.35;;;;;;;4.33;100.00;101151.28;4979426;28;20027;-67
2024/02/28 00:52:25;;;;;;;12.45;9.07;;;;;;;4.33;100.00;101154.03;4995706;28;20069;-67
2024/02/28 00:54:51;;;;;;;16.15;9.85;;;;;;;4.34;100.00;101152.09;4993157;28;20035;-68
2024/02/28 00:57:20;;;;;;;15.52;9.15;;;;;;;4.35;100.00;101154.63;4992461;28;20490;-67
2024/02/28 00:59:45;;;;;;;12.80;9.48;;;;;;;4.36;100.00;101158.22;4974561;28;20026;-67
2024/02/28 01:02:10;;;;;;;14.50;9.32;;;;;;;4.34;100.00;101150.19;4995484;28;20034;-67
2024/02/28 01:04:36;;;;;;;14.65;9.60;;;;;;;4.39;100.00;101144.81;4976897;28;20031;-67
2024/02/28 01:07:01;;;;;;;15.63;9.65;;;;;;;4.39;100.00;101155.00;4990568;28;20030;-68
2024/02/28 01:09:27;;;;;;;14.75;9.60;;;;;;;4.40;100.00;101140.16;4995812;28;20034;-67
2024/02/28 01:11:53;;;;;;;14.55;9.52;;;;;;;4.41;100.00;101144.59;4994638;28;20026;-67
2024/02/28 01:14:18;;;;;;;13.00;9.27;;;;;;;4.43;100.00;101145.16;5004426;28;20034;-67
2024/02/28 01:16:44;;;;;;;16.90;9.68;;;;;;;4.43;100.00;101146.03;4992018;28;20450;-67
2024/02/28 01:19:09;;;;;;;13.23;9.85;;;;;;;4.47;100.00;101149.13;4991436;28;20026;-68
2024/02/28 01:21:35;;;;;;;12.00;8.68;;;;;;;4.45;100.00;101154.03;5008704;28;20391;-67
2024/02/28 01:24:00;;;;;;;15.85;9.02;;;;;;;4.49;100.00;101155.25;4977514;28;20037;-67
2024/02/28 01:26:26;;;;;;;14.30;9.27;;;;;;;4.49;100.00;101149.75;4990536;28;20027;-67
2024/02/28 01:28:51;;;;;;;15.55;10.20;;;;;;;4.51;100.00;101144.00;4989338;28;20126;-68
2024/02/28 01:31:17;;;;;;;13.68;9.00;;;;;;;4.54;100.00;101138.00;4995568;28;20050;-67
2024/02/28 01:33:42;;;;;;;14.18;9.32;;;;;;;4.52;100.00;101135.50;4994904;28;20034;-67
2024/02/28 01:36:07;;;;;;;15.23;8.60;;;;;;;4.53;100.00;101128.94;5008130;28;20047;-67
2024/02/28 01:38:33;;;;;;;12.25;8.45;;;;;;;4.56;100.00;101130.38;4992913;28;20033;-67
2024/02/28 01:40:58;;;;;;;15.90;9.15;;;;;;;4.55;100.00;101128.69;4998343;28;20030;-67
2024/02/28 01:43:24;;;;;;;15.43;9.15;;;;;;;4.54;100.00;101136.13;4966202;28;20023;-67
2024/02/28 01:45:50;;;;;;;13.40;9.07;;;;;;;4.55;100.00;101137.78;4999892;28;20479;-68
2024/02/28 01:48:15;;;;;;;12.57;8.98;;;;;;;4.55;100.00;101136.94;4998812;28;20109;-67
2024/02/28 01:50:41;;;;;;;14.00;8.45;;;;;;;4.57;100.00;101143.91;4980232;28;20497;-67
2024/02/28 01:53:08;;;;;;;12.43;8.52;;;;;;;4.55;100.00;101139.72;4998661;28;20092;-67
2024/02/28 01:55:34;;;;;;;13.68;8.65;;;;;;;4.59;100.00;101144.47;4995032;28;20042;-68
2024/02/28 01:57:59;;;;;;;14.20;8.18;;;;;;;4.56;100.00;101144.13;4979320;28;20027;-67
2024/02/28 02:00:25;;;;;;;13.95;8.57;;;;;;;4.59;100.00;101144.47;4998502;28;20030;-67
2024/02/28 02:02:50;;;;;;;13.15;8.60;;;;;;;4.59;100.00;101127.13;4978916;28;20043;-67
2024/02/28 02:05:18;;;;;;;11.38;8.38;;;;;;;4.60;100.00;101129.66;4998251;28;20018;-67
2024/02/28 02:07:44;;;;;;;13.02;8.88;;;;;;;4.60;100.00;101135.16;4999329;28;20035;-68
2024/02/28 02:10:12;;;;;;;13.10;7.97;;;;;;;4.60;100.00;101135.16;4980728;28;20038;-68
2024/02/28 02:12:37;;;;;;;10.60;7.72;;;;;;;4.61;100.00;101128.56;4999288;28;20030;-67
2024/02/28 02:15:03;;;;;;;12.85;8.15;;;;;;;4.62;100.00;101132.16;4999169;28;20085;-68
2024/02/28 02:17:28;;;;;;;13.40;8.25;;;;;;;4.62;100.00;101127.47;4981002;28;20050;-67
2024/02/28 02:19:54;;;;;;;13.82;8.82;;;;;;;4.64;100.00;101127.25;4993898;28;20034;-67
2024/02/28 02:22:19;;;;;;;11.93;8.15;;;;;;;4.64;100.00;101139.09;4992313;28;20031;-67
2024/02/28 02:24:45;;;;;;;12.00;8.27;;;;;;;4.64;100.00;101141.00;4997111;28;20065;-67
2024/02/28 02:27:10;;;;;;;11.07;7.97;;;;;;;4.66;100.00;101142.44;4997852;28;20045;-67
2024/02/28 02:29:36;;;;;;;12.07;7.18;;;;;;;4.72;100.00;101146.16;4994609;28;20488;-67
2024/02/28 02:32:01;;;;;;;10.45;7.60;;;;;;;4.69;100.00;101141.97;4975636;28;20471;-68
2024/02/28 02:34:27;;;;;;;11.30;7.32;;;;;;;4.68;100.00;101140.31;4994569;28;20034;-67
2024/02/28 02:36:52;;;;;;;11.73;7.20;;;;;;;4.69;100.00;101139.22;4974931;28;20039;-67
2024/02/28 02:39:18;;;;;;;11.95;7.63;;;;;;;4.68;100.00;101143.06;5010776;28;20242;-67
2024/02/28 02:41:43;;;;;;;12.23;7.00;;;;;;;4.64;100.00;101139.09;4975245;28;20041;-67
2024/02/28 02:44:08;;;;;;;9.00;6.85;;;;;;;4.66;100.00;101136.94;4978369;28;20026;-67
2024/02/28 02:46:34;;;;;;;11.02;7.30;;;;;;;4.66;100.00;101128.69;4990234;28;20368;-67
2024/02/28 02:48:59;;;;;;;9.52;6.72;;;;;;;4.67;100.00;101130.34;4996659;28;20026;-68
2024/02/28 02:51:25;;;;;;;10.05;7.13;;;;;;;4.66;100.00;101136.94;5010649;28;20447;-67
2024/02/28 02:53:51;;;;;;;13.23;7.57;;;;;;;4.64;100.00;101130.00;4998335;28;20030;-67
2024/02/28 02:56:16;;;;;;;11.73;6.80;;;;;;;4.66;100.00;101125.13;4994154;28;20030;-67
2024/02/28 02:58:42;;;;;;;13.20;6.82;;;;;;;4.65;100.00;101117.91;4963684;28;20048;-68
2024/02/28 03:01:08;;;;;;;8.82;6.45;;;;;;;4.65;100.00;101112.41;4997513;28;20042;-67
2024/02/28 03:03:34;;;;;;;9.73;6.82;;;;;;;4.65;100.00;101116.03;4997293;28;20034;-67
2024/02/28 03:06:00;;;;;;;11.43;5.93;;;;;;;4.65;100.00;101112.41;5013693;28;20045;-67
2024/02/28 03:08:25;;;;;;;10.43;6.70;;;;;;;4.66;100.00;101117.69;4964382;28;20030;-68
2024/02/28 03:10:50;;;;;;;12.35;6.93;;;;;;;4.67;100.00;101119.34;4998049;28;20041;-67
2024/02/28 03:13:16;;;;;;;10.25;7.38;;;;;;;4.64;100.00;101117.09;4997588;28;20034;-67
2024/02/28 03:15:41;;;;;;;9.95;7.03;;;;;;;4.65;100.00;101112.41;4982927;28;20041;-67
2024/02/28 03:18:07;;;;;;;10.75;7.03;;;;;;;4.65;100.00;101113.28;4964862;28;20022;-67
2024/02/28 03:20:32;;;;;;;11.25;6.93;;;;;;;4.62;100.00;101108.22;5005034;28;20045;-67
2024/02/28 03:22:58;;;;;;;9.88;7.07;;;;;;;4.60;100.00;101096.66;4980478;28;20399;-67
2024/02/28 03:25:23;;;;;;;12.18;7.45;;;;;;;4.61;100.00;101100.22;4996579;28;20031;-67
2024/02/28 03:27:49;;;;;;;9.70;7.30;;;;;;;4.61;100.00;101109.31;5012907;28;20041;-67
2024/02/28 03:30:14;;;;;;;10.77;6.75;;;;;;;4.65;100.00;101104.16;5013056;28;20081;-67
2024/02/28 03:32:40;;;;;;;11.75;7.57;;;;;;;4.60;100.00;101104.91;5001884;28;20026;-67
2024/02/28 03:35:08;;;;;;;9.88;7.10;;;;;;;4.59;100.00;101111.47;4988532;28;20026;-67
2024/02/28 03:37:34;;;;;;;10.23;6.70;;;;;;;4.58;100.00;101109.78;4977411;28;20034;-67
2024/02/28 03:39:59;;;;;;;9.85;6.95;;;;;;;4.58;100.00;101112.53;4973167;28;20038;-67
2024/02/28 03:42:25;;;;;;;9.35;7.43;;;;;;;4.59;100.00;101119.72;5000169;28;20037;-68
2024/02/28 03:44:50;;;;;;;9.43;6.95;;;;;;;4.60;100.00;101121.41;5020990;28;20037;-67
2024/02/28 03:47:15;;;;;;;9.80;7.10;;;;;;;4.56;100.00;101122.94;4976789;28;20033;-67
2024/02/28 03:49:41;;;;;;;8.45;6.72;;;;;;;4.58;100.00;101119.97;4996796;28;20088;-67
2024/02/28 03:52:06;;;;;;;10.63;6.93;;;;;;;4.56;100.00;101116.59;4993270;28;20472;-67
2024/02/28 03:54:32;;;;;;;13.32;7.63;;;;;;;4.59;100.00;101119.72;4972749;28;20041;-67
2024/02/28 03:56:58;;;;;;;11.25;7.35;;;;;;;4.56;100.00;101109.19;4976934;28;20443;-68
2024/02/28 03:59:24;;;;;;;11.43;7.20;;;;;;;4.58;100.00;101112.53;4988291;28;20038;-67
2024/02/28 04:01:49;;;;;;;11.57;7.85;;;;;;;4.57;100.00;101119.13;4992463;28;20031;-67
2024/02/28 04:04:15;;;;;;;9.90;6.85;;;;;;;4.58;100.00;101123.56;4967027;28;20045;-67
2024/02/28 04:06:40;;;;;;;11.30;7.10;;;;;;;4.59;100.00;101125.22;4978629;28;20061;-67
2024/02/28 04:09:05;;;;;;;12.52;8.20;;;;;;;4.59;100.00;101122.47;4997781;28;20038;-67
2024/02/28 04:11:31;;;;;;;12.60;8.13;;;;;;;4.59;100.00;101125.22;4997265;28;20513;-67
2024/02/28 04:13:57;;;;;;;9.60;7.35;;;;;;;4.59;100.00;101125.22;4996635;28;20031;-67
2024/02/28 04:16:22;;;;;;;12.40;7.93;;;;;;;4.61;100.00;101117.56;4996406;28;20023;-67
2024/02/28 04:18:47;;;;;;;13.65;7.63;;;;;;;4.62;100.00;101112.91;4992991;28;20484;-68
2024/02/28 04:21:13;;;;;;;10.75;7.00;;;;;;;4.63;100.00;101120.91;4962665;28;20038;-67
2024/02/28 04:23:39;;;;;;;11.95;7.43;;;;;;;4.63;100.00;101123.66;4997268;28;20391;-67
2024/02/28 04:26:04;;;;;;;11.00;7.05;;;;;;;4.67;100.00;101124.03;4995742;28;20038;-67
2024/02/28 04:28:30;;;;;;;11.95;7.78;;;;;;;4.67;100.00;101119.34;4979745;28;20038;-68
2024/02/28 04:30:55;;;;;;;10.93;7.88;;;;;;;4.68;100.00;101118.28;4979615;28;20110;-67
2024/02/28 04:33:21;;;;;;;11.88;7.45;;;;;;;4.72;100.00;101131.56;4989355;28;20041;-68
2024/02/28 04:35:46;;;;;;;10.57;7.10;;;;;;;4.70;100.00;101132.63;4983524;28;20026;-67
2024/02/28 04:38:12;;;;;;;8.88;6.57;;;;;;;4.69;100.00;101122.72;4992498;28;20030;-67
2024/02/28 04:40:37;;;;;;;10.40;6.72;;;;;;;4.73;100.00;101120.31;4994308;28;20034;-67
2024/02/28 04:43:03;;;;;;;10.25;6.85;;;;;;;4.74;100.00;101115.66;4996560;28;20026;-67
2024/02/28 04:45:29;;;;;;;13.40;7.40;;;;;;;4.74;100.00;101119.25;4995768;28;20049;-67
2024/02/28 04:47:56;;;;;;;10.48;6.70;;;;;;;4.74;100.00;101121.16;4976295;28;20035;-67
2024/02/28 04:50:22;;;;;;;11.27;6.45;;;;;;;4.77;100.00;101118.75;4991155;28;20034;-67
2024/02/28 04:52:47;;;;;;;9.40;6.97;;;;;;;4.77;100.00;101131.69;5002153;28;20364;-67
2024/02/28 04:55:13;;;;;;;10.02;6.88;;;;;;;4.76;100.00;101116.22;4996854;28;20030;-67
2024/02/28 04:57:38;;;;;;;11.57;6.47;;;;;;;4.77;100.00;101120.69;5002429;28;20027;-68
2024/02/28 05:00:04;;;;;;;11.05;6.63;;;;;;;4.79;100.00;101127.63;4992201;28;20042;-68
2024/02/28 05:02:30;;;;;;;9.25;6.18;;;;;;;4.79;100.00;101130.38;4974553;28;20557;-68
2024/02/28 05:04:55;;;;;;;10.07;6.28;;;;;;;4.81;100.00;101116.34;4975850;28;20035;-68
2024/02/28 05:07:21;;;;;;;8.60;6.07;;;;;;;4.81;100.00;101108.09;4993193;28;20049;-68
2024/02/28 05:09:46;;;;;;;11.10;6.43;;;;;;;4.81;100.00;101105.34;4979397;28;20034;-67
2024/02/28 05:12:12;;;;;;;8.75;6.20;;;;;;;4.81;100.00;101108.94;4995582;28;20026;-67
2024/02/28 05:14:37;;;;;;;9.65;5.80;;;;;;;4.82;100.00;101109.75;5005666;28;20022;-67
2024/02/28 05:17:03;;;;;;;10.02;6.07;;;;;;;4.82;100.00;101104.25;5016595;28;20651;-67
2024/02/28 05:19:28;;;;;;;10.95;5.78;;;;;;;4.81;100.00;101108.94;5000627;28;20831;-67
2024/02/28 05:21:54;;;;;;;11.63;6.53;;;;;;;4.82;100.00;101107.00;4979895;28;20022;-67
2024/02/28 05:24:19;;;;;;;10.57;5.85;;;;;;;4.82;100.00;101107.88;4997447;28;20023;-67
2024/02/28 05:26:45;;;;;;;11.18;5.90;;;;;;;4.79;100.00;101107.50;5012293;28;20041;-67
2024/02/28 05:29:10;;;;;;;12.52;5.88;;;;;;;4.80;100.00;101115.53;4995944;28;20039;-68
2024/02/28 05:31:38;;;;;;;12.02;5.72;;;;;;;4.78;100.00;101120.41;5016197;28;20053;-67
2024/02/28 05:34:03;;;;;;;10.15;6.43;;;;;;;4.80;100.00;101115.53;5011240;28;20080;-68
2024/02/28 05:36:29;;;;;;;12.77;6.18;;;;;;;4.80;100.00;101107.28;4979563;28;20039;-67
2024/02/28 05:38:55;;;;;;;9.68;5.50;;;;;;;4.82;100.00;101107.00;5013674;28;20077;-67
2024/02/28 05:41:21;;;;;;;9.27;6.00;;;;;;;4.80;100.00;101114.69;4995320;28;20058;-67
2024/02/28 05:43:46;;;;;;;7.50;5.78;;;;;;;4.79;100.00;101104.75;4991669;28;20471;-67
2024/02/28 05:46:12;;;;;;;7.57;4.80;;;;;;;4.79;100.00;101107.50;4979520;28;20070;-68
2024/02/28 05:48:38;;;;;;;11.43;5.57;;;;;;;4.79;100.00;101111.09;4962750;28;20097;-68
2024/02/28 05:51:03;;;;;;;9.98;6.00;;;;;;;4.81;100.00;101111.69;4995680;28;20487;-67
2024/02/28 05:53:35;;;;;;;8.77;5.18;;;;;;;4.81;100.00;101110.84;4978388;28;20113;-67
2024/02/28 05:56:03;;;;;;;9.43;5.28;;;;;;;4.80;100.00;101111.94;4999296;28;20035;-67
2024/02/28 05:58:29;;;;;;;12.85;5.40;;;;;;;4.80;100.00;101103.69;5010400;28;20041;-68
2024/02/28 06:00:54;;;;;;;12.50;6.03;;;;;;;4.78;100.00;101103.09;4980288;28;20039;-67
2024/02/28 06:03:20;;;;;;;10.55;5.38;;;;;;;4.78;100.00;101103.09;5014195;28;20387;-67
2024/02/28 06:05:45;;;;;;;10.25;5.47;;;;;;;4.81;100.00;101099.84;5003027;28;20031;-68
2024/02/28 06:08:11;;;;;;;11.20;5.80;;;;;;;4.80;100.00;101103.69;4965729;28;20038;-67
2024/02/28 06:10:36;;;;;;;12.25;5.78;;;;;;;4.79;100.00;101111.09;4997495;28;20309;-68
2024/02/28 06:13:02;;;;;;;11.45;5.65;;;;;;;4.82;100.00;101104.25;4983822;28;20478;-68
2024/02/28 06:15:27;;;;;;;10.98;5.47;;;;;;;4.83;100.00;101105.94;5007337;28;20038;-68
2024/02/28 06:17:53;;;;;;;8.73;5.28;;;;;;;4.82;100.00;101113.38;4997450;28;20398;-67
2024/02/28 06:20:18;;;;;;;7.90;5.32;;;;;;;4.84;100.00;101107.63;4997956;28;20026;-67
2024/02/28 06:22:44;;;;;;;10.45;5.40;;;;;;;4.82;100.00;101107.00;5011140;28;20034;-67
2024/02/28 06:25:18;;;;;;;9.55;5.18;;;;;;;4.84;100.00;101102.09;4983427;28;20038;-68
2024/02/28 06:27:43;;;;;;;8.02;5.22;;;;;;;4.85;100.00;101110.13;4997960;28;20513;-68
2024/02/28 06:30:09;;;;;;;9.23;5.60;;;;;;;4.86;100.00;101100.78;4978232;28;20051;-67
2024/02/28 06:32:34;;;;;;;12.38;6.57;;;;;;;4.88;100.00;101097.81;4996629;28;20050;-68
2024/02/28 06:35:01;;;;;;;12.48;5.57;;;;;;;4.92;100.00;101104.50;4983357;28;20034;-67
2024/02/28 06:37:26;;;;;;;13.07;5.88;;;;;;;4.90;100.00;101104.75;4997566;28;20030;-67
2024/02/28 06:39:52;;;;;;;10.98;5.65;;;;;;;4.93;100.00;101111.66;4978523;28;20042;-68
2024/02/28 06:42:18;;;;;;;13.73;6.13;;;;;;;4.96;100.00;101113.09;5001223;28;20084;-67
2024/02/28 06:44:43;;;;;;;9.27;5.97;;;;;;;4.97;100.00;101112.88;5004084;28;20038;-68
2024/02/28 06:47:09;;;;;;;9.35;6.15;;;;;;;5.00;100.00;101122.56;5013724;28;20505;-68
2024/02/28 06:49:35;;;;;;;13.18;5.88;;;;;;;5.00;100.00;101112.38;4994299;28;20073;-68
2024/02/28 06:52:01;;;;;;;13.00;6.32;;;;;;;5.01;100.00;101108.53;4993969;28;20038;-67
2024/02/28 06:54:29;;;;;;;11.98;6.07;;;;;;;5.05;100.00;101120.75;5010529;28;20499;-67
2024/02/28 06:56:55;;;;;;;9.38;6.25;;;;;;;5.08;100.00;101117.50;4977805;28;20042;-68
2024/02/28 06:59:20;;;;;;;13.10;6.22;;;;;;;5.11;100.00;101116.19;4998678;28;20022;-67
2024/02/28 07:01:46;;;;;;;17.15;7.00;;;;;;;5.12;100.00;101115.09;4996904;28;20031;-68
2024/02/28 07:04:11;;;;;;;11.38;6.72;;;;;;;5.14;100.00;101111.03;4997527;28;20037;-68
2024/02/28 07:06:37;;;;;;;12.52;6.65;;;;;;;5.15;100.00;101111.84;4981039;28;20038;-68
2024/02/28 07:09:02;;;;;;;9.13;6.03;;;;;;;5.17;100.00;101114.38;4997410;28;20023;-68
2024/02/28 07:11:28;;;;;;;14.10;6.95;;;;;;;5.19;100.00;101109.47;4996319;28;20022;-68
2024/02/28 07:13:53;;;;;;;10.60;6.78;;;;;;;5.22;100.00;101115.31;4987903;28;20031;-68
2024/02/28 07:16:19;;;;;;;12.00;7.13;;;;;;;5.25;100.00;101109.31;4996538;28;20038;-67
2024/02/28 07:18:44;;;;;;;11.27;6.05;;;;;;;5.24;100.00;101115.94;4997780;28;20034;-68
2024/02/28 07:21:10;;;;;;;11.52;6.63;;;;;;;5.30;100.00;101116.88;4980594;28;20034;-68
2024/02/28 07:23:38;;;;;;;15.30;7.63;;;;;;;5.31;100.00;101111.09;5013061;28;20045;-68
2024/02/28 07:26:03;;;;;;;11.82;7.60;;;;;;;5.34;100.00;101107.84;4980465;28;20206;-68
2024/02/28 07:28:29;;;;;;;17.77;7.93;;;;;;;5.36;100.00;101110.38;4996964;28;20034;-67
2024/02/28 07:30:54;;;;;;;12.77;7.50;;;;;;;5.38;100.00;101122.00;4996408;28;20577;-67
2024/02/28 07:33:20;;;;;;;12.15;6.85;;;;;;;5.46;100.00;101115.22;4996766;28;20030;-68
2024/02/28 07:35:46;;;;;;;13.25;7.57;;;;;;;5.46;100.00;101121.59;4997044;28;20540;-67
2024/02/28 07:38:12;;;;;;;13.05;7.35;;;;;;;5.49;100.00;101111.97;4993510;28;20042;-68
2024/02/28 07:40:37;;;;;;;15.80;8.32;;;;;;;5.53;100.00;101111.25;4995159;28;20038;-68
2024/02/28 07:43:03;;;;;;;17.77;9.82;;;;;;;5.56;100.00;101119.03;5005411;28;20037;-68
2024/02/28 07:45:28;;;;;;;14.05;7.93;;;;;;;5.59;100.00;101121.28;4999222;28;20128;-68
2024/02/28 07:47:53;;;;;;;15.52;8.18;;;;;;;5.63;100.00;101126.31;4995992;28;20037;-68
2024/02/28 07:50:19;;;;;;;14.10;7.70;;;;;;;5.64;100.00;101128.00;4980238;28;20062;-68
2024/02/28 07:52:45;;;;;;;12.18;7.03;;;;;;;5.66;100.00;101129.44;5009720;28;20039;-68
2024/02/28 07:55:10;;;;;;;12.68;7.90;;;;;;;5.70;100.00;101119.56;4994502;28;20030;-66
2024/02/28 07:57:36;;;;;;;15.68;7.93;;;;;;;5.76;100.00;101131.53;4993100;28;20089;-67
2024/02/28 08:00:01;;;;;;;14.43;8.60;;;;;;;5.80;100.00;101132.72;4976933;28;20034;-68
2024/02/28 08:02:27;;;;;;;12.18;7.85;;;;;;;5.86;100.00;101141.91;4976641;28;20486;-68
2024/02/28 08:04:52;;;;;;;16.30;7.82;;;;;;;5.92;100.00;101144.50;4945439;28;20030;-67
2024/02/28 08:07:18;;;;;;;14.88;8.43;;;;;;;5.93;100.00;101140.69;4996246;28;20037;-67
2024/02/28 08:09:43;;;;;;;18.30;8.93;;;;;;;6.01;100.00;101145.81;4996306;28;20057;-67
2024/02/28 08:12:08;;;;;;;17.33;8.10;;;;;;;6.04;100.00;101139.81;4992658;28;20035;-67
2024/02/28 08:14:34;;;;;;;14.30;7.82;;;;;;;6.11;100.00;101141.56;4959537;28;20033;-68
2024/02/28 08:16:59;;;;;;;14.40;7.95;;;;;;;6.15;100.00;101151.00;4998130;28;20043;-68
2024/02/28 08:19:25;;;;;;;16.23;8.52;;;;;;;6.22;100.00;101151.69;4975606;28;20065;-68
2024/02/28 08:21:50;;;;;;;13.93;7.25;;;;;;;6.28;100.00;101152.63;4979702;28;20038;-68
2024/02/28 08:24:16;;;;;;;15.32;7.63;;;;;;;6.33;100.00;101156.31;5001594;28;20490;-67
2024/02/28 08:26:42;;;;;;;13.98;7.00;;;;;;;6.36;100.00;101155.81;4991464;28;20043;-68
2024/02/28 08:29:07;;;;;;;13.75;8.80;;;;;;;6.46;100.00;101142.19;4993579;28;20072;-68
2024/02/28 08:31:33;;;;;;;15.68;8.43;;;;;;;6.54;100.00;101151.09;4992674;28;20054;-68
2024/02/28 08:33:58;;;;;;;14.95;8.10;;;;;;;6.57;100.00;101156.13;4988575;28;20049;-68
2024/02/28 08:36:24;;;;;;;14.68;8.05;;;;;;;6.65;100.00;101150.19;4992611;28;20027;-68
2024/02/28 08:38:51;;;;;;;11.88;8.30;;;;;;;6.74;100.00;101148.66;4992861;28;20030;-68
2024/02/28 08:41:17;;;;;;;14.98;7.55;;;;;;;6.80;100.00;101155.94;4976411;28;20031;-68
2024/02/28 08:43:42;;;;;;;14.95;8.45;;;;;;;6.86;100.00;101156.84;5003883;28;20039;-68
2024/02/28 08:46:08;;;;;;;14.35;8.15;;;;;;;6.91;100.00;101155.00;4985999;28;20101;-68
2024/02/28 08:48:34;;;;;;;13.48;7.88;;;;;;;6.97;100.00;101158.69;4997675;28;20037;-67
2024/02/28 08:50:59;;;;;;;11.52;7.03;;;;;;;7.01;100.00;101153.47;4996411;28;20166;-68
2024/02/28 08:53:25;;;;;;;11.88;6.40;;;;;;;7.06;100.00;101161.84;4998918;28;20018;-68
2024/02/28 08:55:50;;;;;;;8.93;6.03;;;;;;;7.10;100.00;101168.50;5013144;28;20035;-68
2024/02/28 08:58:17;;;;;;;8.63;5.55;;;;;;;7.13;100.00;101163.34;4979062;28;20035;-68
2024/02/28 09:00:43;;;;;;;9.18;6.72;;;;;;;7.21;100.00;101167.56;4996459;28;20030;-68
2024/02/28 09:03:12;;;;;;;10.40;7.00;;;;;;;7.25;100.00;101154.91;4998193;28;20045;-68
2024/02/28 09:05:38;;;;;;;11.15;6.53;;;;;;;7.31;100.00;101159.41;4997839;28;20034;-68
2024/02/28 09:08:04;;;;;;;9.25;5.82;;;;;;;7.34;100.00;101158.91;4967146;28;20042;-67
2024/02/28 09:10:31;;;;;;;9.43;5.82;;;;;;;7.39;100.00;101158.97;4996430;28;20039;-68
2024/02/28 09:12:56;;;;;;;9.90;6.78;;;;;;;7.47;100.00;101173.44;4980495;28;20030;-67
2024/02/28 09:15:22;;;;;;;8.13;6.13;;;;;;;7.50;100.00;101168.22;5016521;28;20081;-68
2024/02/28 09:17:47;;;;;;;10.70;6.13;;;;;;;7.55;100.00;101164.66;4982387;28;20030;-68
2024/02/28 09:20:13;;;;;;;11.38;7.82;;;;;;;7.59;100.00;101158.38;5001132;28;20034;-67
2024/02/28 09:22:38;;;;;;;9.82;6.35;;;;;;;7.63;100.00;101164.22;4985546;28;20027;-68
2024/02/28 09:25:04;;;;;;;8.70;5.40;;;;;;;7.67;100.00;101162.63;4996042;28;20086;-68
2024/02/28 09:27:33;;;;;;;9.07;5.70;;;;;;;7.70;100.00;101167.63;4963941;28;20038;-68
2024/02/28 09:29:58;;;;;;;7.50;5.07;;;;;;;7.73;100.00;101166.28;4979353;28;20046;-68
2024/02/28 09:32:23;;;;;;;8.23;5.97;;;;;;;7.75;100.00;101164.09;4998676;28;20038;-67
2024/02/28 09:34:49;;;;;;;9.77;6.90;;;;;;;7.79;100.00;101159.69;4992388;28;20034;-68
2024/02/28 09:37:16;;;;;;;8.27;5.80;;;;;;;7.81;100.00;101163.06;4998284;28;20407;-68
2024/02/28 09:39:42;;;;;;;10.25;6.70;;;;;;;7.84;100.00;101160.59;4998983;28;20399;-68
2024/02/28 09:42:08;;;;;;;10.88;5.53;;;;;;;7.88;100.00;101163.66;5014975;28;20034;-67
2024/02/28 09:44:34;;;;;;;9.30;5.95;;;;;;;7.93;100.00;101162.91;5025344;28;20026;-68
2024/02/28 09:46:59;;;;;;;7.88;5.75;;;;;;;7.97;100.00;101162.13;4998744;28;20060;-68
2024/02/28 09:49:26;;;;;;;9.18;6.25;;;;;;;8.00;100.00;101163.53;4999982;28;20041;-68
2024/02/28 09:51:52;;;;;;;11.68;7.70;;;;;;;8.04;100.00;101165.50;4990257;28;20900;-68
2024/02/28 09:54:17;;;;;;;9.60;6.95;;;;;;;8.05;100.00;101163.56;5004222;28;20061;-67
2024/02/28 09:56:43;;;;;;;8.38;6.13;;;;;;;8.07;100.00;101167.75;4998344;28;20062;-68
2024/02/28 09:59:08;;;;;;;8.65;6.15;;;;;;;8.14;100.00;101166.72;4985771;28;20030;-68
2024/02/28 10:01:36;;;;;;;10.25;6.50;;;;;;;8.18;100.00;101174.22;4979450;28;20042;-67
2024/02/28 10:04:01;;;;;;;7.82;5.63;;;;;;;8.21;100.00;101173.69;4978923;28;20031;-68
2024/02/28 10:06:26;;;;;;;12.18;7.80;;;;;;;8.27;100.00;101178.19;4981576;28;20578;-68
2024/02/28 10:08:53;;;;;;;10.43;7.07;;;;;;;8.33;100.00;101158.84;4998496;28;20030;-68
2024/02/28 10:11:21;;;;;;;8.40;6.40;;;;;;;8.37;100.00;101163.59;4993894;28;20340;-68
2024/02/28 10:13:47;;;;;;;12.30;8.65;;;;;;;8.44;100.00;101167.03;4973902;28;20030;-68
2024/02/28 10:16:15;;;;;;;10.35;7.40;;;;;;;8.46;100.00;101159.28;5014474;28;20522;-68
2024/02/28 10:18:43;;;;;;;8.18;6.10;;;;;;;8.49;100.00;101158.75;4997879;28;20030;-68
2024/02/28 10:21:10;;;;;;;8.98;6.70;;;;;;;8.54;100.00;101159.91;4996571;28;20062;-68
2024/02/28 10:23:36;;;;;;;10.45;7.25;;;;;;;8.56;100.00;101152.16;4981926;28;20064;-68
2024/02/28 10:26:02;;;;;;;9.73;6.95;;;;;;;8.60;100.00;101145.81;4980968;28;20046;-68
2024/02/28 10:28:27;;;;;;;11.85;8.52;;;;;;;8.69;100.00;101148.91;4978368;28;20031;-67
2024/02/28 10:30:53;;;;;;;11.13;7.40;;;;;;;8.75;100.00;101145.13;4993474;28;20498;-67
2024/02/28 10:33:19;;;;;;;10.68;7.60;;;;;;;8.79;100.00;101149.00;5014987;28;20023;-67
2024/02/28 10:35:44;;;;;;;10.02;7.60;;;;;;;8.82;100.00;101151.25;4981534;28;20045;-67
2024/02/28 10:38:11;;;;;;;12.95;8.50;;;;;;;8.89;100.00;101157.38;4994209;28;20395;-68
2024/02/28 10:40:37;;;;;;;12.60;9.30;;;;;;;8.92;100.00;101150.47;4979307;28;20094;-68
2024/02/28 10:43:03;;;;;;;13.02;9.32;;;;;;;8.95;100.00;101161.03;4981797;28;20571;-68
2024/02/28 10:45:31;;;;;;;10.27;7.18;;;;;;;8.97;100.00;101160.75;5025464;28;20410;-67
2024/02/28 10:47:57;;;;;;;11.68;9.18;;;;;;;8.99;100.00;101156.59;4992319;28;20491;-68
2024/02/28 10:50:22;;;;;;;14.80;10.13;;;;;;;9.02;100.00;101169.91;5009062;28;20065;-68
2024/02/28 10:52:50;;;;;;;10.80;7.85;;;;;;;9.04;100.00;101169.66;4981583;28;20037;-68
2024/02/28 10:55:23;;;;;;;10.60;7.72;;;;;;;9.07;100.00;101172.72;5024879;28;20052;-68
2024/02/28 10:58:01;;;;;;;12.45;8.75;;;;;;;9.12;100.00;101170.00;5003901;28;20030;-67
2024/02/28 11:00:26;;;;;;;10.77;7.55;;;;;;;9.15;100.00;101174.16;4980899;28;20030;-67
2024/02/28 11:02:52;;;;;;;12.77;8.55;;;;;;;9.17;100.00;101166.44;4981042;28;20041;-67
2024/02/28 11:05:18;;;;;;;10.88;7.95;;;;;;;9.20;100.00;101162.28;4980675;28;20026;-67
2024/02/28 11:07:43;;;;;;;11.35;7.40;;;;;;;9.23;100.00;101167.28;4964434;28;20038;-68
2024/02/28 11:10:10;;;;;;;8.77;6.40;;;;;;;9.23;100.00;101158.97;5013224;28;20027;-67
2024/02/28 11:12:36;;;;;;;12.48;9.18;;;;;;;9.28;100.00;101156.22;4993409;28;20031;-68